sensor_id;sensor_type;location;lat;lon;timestamp;pressure;altitude;pressure_sealevel;temperature
40968;BMP280;57377;45.130;6.038;2022-10-16T09:56:47;92955.66;;;28.98
40968;BMP280;57377;45.130;6.038;2022-10-16T09:59:21;92957.38;;;25.38
40968;BMP280;57377;45.130;6.038;2022-10-16T10:01:55;92968.16;;;22.62
40968;BMP280;57377;45.130;6.038;2022-10-16T10:05:52;92960.91;;;24.04
40968;BMP280;57377;45.130;6.038;2022-10-16T10:08:18;92962.97;;;23.06
40968;BMP280;57377;45.130;6.038;2022-10-16T10:10:48;92969.97;;;22.77
40968;BMP280;57377;45.130;6.038;2022-10-16T10:13:35;92972.19;;;21.30
40968;BMP280;57377;45.130;6.038;2022-10-16T10:16:00;92959.47;;;21.21
40968;BMP280;57377;45.130;6.038;2022-10-16T10:18:28;92961.28;;;21.93
40968;BMP280;57377;45.130;6.038;2022-10-16T10:21:00;92956.69;;;21.90
40968;BMP280;57377;45.130;6.038;2022-10-16T10:24:08;92969.19;;;21.32
40968;BMP280;57377;45.130;6.038;2022-10-16T10:30:02;92950.00;;;21.96
40968;BMP280;57377;45.130;6.038;2022-10-16T10:53:12;92918.16;;;22.45
40968;BMP280;57377;45.130;6.038;2022-10-16T10:55:43;92911.44;;;22.51
40968;BMP280;57377;45.130;6.038;2022-10-16T11:04:29;92904.06;;;22.41
40968;BMP280;57377;45.130;6.038;2022-10-16T11:07:13;92915.78;;;22.40
40968;BMP280;57377;45.130;6.038;2022-10-16T11:09:44;92906.78;;;22.63
40968;BMP280;57377;45.130;6.038;2022-10-16T11:12:17;92898.88;;;22.85
40968;BMP280;57377;45.130;6.038;2022-10-16T11:15:02;92901.09;;;23.02
40968;BMP280;57377;45.130;6.038;2022-10-16T11:17:33;92895.22;;;23.12
40968;BMP280;57377;45.130;6.038;2022-10-16T11:20:30;92879.19;;;23.27
40968;BMP280;57377;45.130;6.038;2022-10-16T11:23:21;92884.41;;;23.24
40968;BMP280;57377;45.130;6.038;2022-10-16T11:25:48;92869.56;;;23.42
40968;BMP280;57377;45.130;6.038;2022-10-16T11:28:27;92873.16;;;23.52
40968;BMP280;57377;45.130;6.038;2022-10-16T11:31:40;92876.34;;;23.61
40968;BMP280;57377;45.130;6.038;2022-10-16T11:34:25;92870.09;;;23.76
40968;BMP280;57377;45.130;6.038;2022-10-16T11:39:26;92859.78;;;23.97
40968;BMP280;57377;45.130;6.038;2022-10-16T11:41:56;92852.38;;;24.13
40968;BMP280;57377;45.130;6.038;2022-10-16T11:47:33;92845.22;;;24.13
40968;BMP280;57377;45.130;6.038;2022-10-16T11:55:36;92848.19;;;24.37
40968;BMP280;57377;45.130;6.038;2022-10-16T11:58:06;92843.75;;;24.48
40968;BMP280;57377;45.130;6.038;2022-10-16T12:00:40;92848.53;;;24.32
40968;BMP280;57377;45.130;6.038;2022-10-16T12:03:20;92843.53;;;24.27
40968;BMP280;57377;45.130;6.038;2022-10-16T12:08:33;92839.28;;;24.55
40968;BMP280;57377;45.130;6.038;2022-10-16T12:11:22;92850.09;;;24.69
40968;BMP280;57377;45.130;6.038;2022-10-16T12:13:48;92847.66;;;24.57
40968;BMP280;57377;45.130;6.038;2022-10-16T12:18:46;92841.00;;;24.74
40968;BMP280;57377;45.130;6.038;2022-10-16T12:21:13;92844.56;;;24.52
40968;BMP280;57377;45.130;6.038;2022-10-16T12:23:51;92838.53;;;24.87
40968;BMP280;57377;45.130;6.038;2022-10-16T12:26:36;92846.75;;;24.76
40968;BMP280;57377;45.130;6.038;2022-10-16T12:29:36;92838.53;;;24.55
40968;BMP280;57377;45.130;6.038;2022-10-16T12:32:01;92846.16;;;24.60
40968;BMP280;57377;45.130;6.038;2022-10-16T12:34:43;92834.31;;;24.86
40968;BMP280;57377;45.130;6.038;2022-10-16T12:37:27;92843.38;;;24.82
40968;BMP280;57377;45.130;6.038;2022-10-16T12:39:55;92842.72;;;24.88
40968;BMP280;57377;45.130;6.038;2022-10-16T12:44:53;92834.72;;;24.88
40968;BMP280;57377;45.130;6.038;2022-10-16T12:49:56;92842.59;;;24.46
40968;BMP280;57377;45.130;6.038;2022-10-16T12:52:37;92840.91;;;24.63
40968;BMP280;57377;45.130;6.038;2022-10-16T12:55:04;92844.06;;;24.40
40968;BMP280;57377;45.130;6.038;2022-10-16T13:03:14;92839.41;;;24.66
40968;BMP280;57377;45.130;6.038;2022-10-16T13:19:32;92851.50;;;24.27
40968;BMP280;57377;45.130;6.038;2022-10-16T13:22:35;92844.19;;;24.21
40968;BMP280;57377;45.130;6.038;2022-10-16T13:28:06;92843.91;;;24.29
40968;BMP280;57377;45.130;6.038;2022-10-16T13:33:10;92847.69;;;24.28
40968;BMP280;57377;45.130;6.038;2022-10-16T13:35:49;92842.34;;;23.99
40968;BMP280;57377;45.130;6.038;2022-10-16T13:38:35;92846.19;;;24.27
40968;BMP280;57377;45.130;6.038;2022-10-16T13:41:11;92837.16;;;24.10
40968;BMP280;57377;45.130;6.038;2022-10-16T13:43:51;92837.66;;;23.89
40968;BMP280;57377;45.130;6.038;2022-10-16T13:46:19;92843.38;;;23.91
40968;BMP280;57377;45.130;6.038;2022-10-16T13:49:10;92840.78;;;23.47
40968;BMP280;57377;45.130;6.038;2022-10-16T13:51:36;92851.56;;;23.54
40968;BMP280;57377;45.130;6.038;2022-10-16T13:54:02;92852.53;;;23.68
40968;BMP280;57377;45.130;6.038;2022-10-16T13:56:29;92847.34;;;23.75
40968;BMP280;57377;45.130;6.038;2022-10-16T13:59:02;92854.06;;;23.95
40968;BMP280;57377;45.130;6.038;2022-10-16T14:01:30;92845.28;;;23.65
40968;BMP280;57377;45.130;6.038;2022-10-16T14:04:08;92845.94;;;23.84
40968;BMP280;57377;45.130;6.038;2022-10-16T14:06:36;92855.75;;;23.81
40968;BMP280;57377;45.130;6.038;2022-10-16T14:09:26;92847.22;;;23.68
40968;BMP280;57377;45.130;6.038;2022-10-16T14:12:06;92852.75;;;23.56
40968;BMP280;57377;45.130;6.038;2022-10-16T14:14:40;92848.91;;;23.32
40968;BMP280;57377;45.130;6.038;2022-10-16T14:17:13;92857.56;;;22.85
40968;BMP280;57377;45.130;6.038;2022-10-16T14:19:39;92854.91;;;23.07
40968;BMP280;57377;45.130;6.038;2022-10-16T14:22:33;92851.75;;;23.20
40968;BMP280;57377;45.130;6.038;2022-10-16T14:24:59;92850.81;;;23.31
40968;BMP280;57377;45.130;6.038;2022-10-16T14:27:35;92869.66;;;23.04
40968;BMP280;57377;45.130;6.038;2022-10-16T14:32:34;92869.06;;;22.92
40968;BMP280;57377;45.130;6.038;2022-10-16T14:34:59;92866.50;;;22.77
40968;BMP280;57377;45.130;6.038;2022-10-16T14:37:26;92863.38;;;22.52
40968;BMP280;57377;45.130;6.038;2022-10-16T14:39:53;92865.59;;;22.69
40968;BMP280;57377;45.130;6.038;2022-10-16T14:42:21;92867.41;;;22.65
40968;BMP280;57377;45.130;6.038;2022-10-16T14:44:50;92864.09;;;22.50
40968;BMP280;57377;45.130;6.038;2022-10-16T14:47:19;92881.75;;;22.23
40968;BMP280;57377;45.130;6.038;2022-10-16T14:49:50;92876.44;;;22.23
40968;BMP280;57377;45.130;6.038;2022-10-16T14:52:15;92877.19;;;22.24
40968;BMP280;57377;45.130;6.038;2022-10-16T14:54:41;92872.09;;;22.16
40968;BMP280;57377;45.130;6.038;2022-10-16T14:57:17;92881.25;;;22.03
40968;BMP280;57377;45.130;6.038;2022-10-16T14:59:43;92875.91;;;21.84
40968;BMP280;57377;45.130;6.038;2022-10-16T15:04:47;92883.28;;;22.09
40968;BMP280;57377;45.130;6.038;2022-10-16T15:07:13;92876.72;;;22.19
40968;BMP280;57377;45.130;6.038;2022-10-16T15:09:38;92882.00;;;22.19
40968;BMP280;57377;45.130;6.038;2022-10-16T15:12:04;92871.59;;;22.10
40968;BMP280;57377;45.130;6.038;2022-10-16T15:14:29;92879.72;;;22.02
40968;BMP280;57377;45.130;6.038;2022-10-16T15:16:54;92879.63;;;21.98
40968;BMP280;57377;45.130;6.038;2022-10-16T15:19:20;92882.56;;;21.93
40968;BMP280;57377;45.130;6.038;2022-10-16T15:21:45;92876.41;;;21.89
40968;BMP280;57377;45.130;6.038;2022-10-16T15:24:12;92886.81;;;21.49
40968;BMP280;57377;45.130;6.038;2022-10-16T15:26:38;92890.16;;;21.61
40968;BMP280;57377;45.130;6.038;2022-10-16T15:29:03;92889.31;;;21.57
40968;BMP280;57377;45.130;6.038;2022-10-16T15:31:30;92894.13;;;21.70
40968;BMP280;57377;45.130;6.038;2022-10-16T15:33:55;92885.78;;;21.68
40968;BMP280;57377;45.130;6.038;2022-10-16T15:36:30;92886.06;;;21.63
40968;BMP280;57377;45.130;6.038;2022-10-16T15:38:56;92893.47;;;21.58
40968;BMP280;57377;45.130;6.038;2022-10-16T15:41:22;92898.69;;;21.55
40968;BMP280;57377;45.130;6.038;2022-10-16T15:43:48;92896.06;;;21.55
40968;BMP280;57377;45.130;6.038;2022-10-16T15:46:14;92903.50;;;21.49
40968;BMP280;57377;45.130;6.038;2022-10-16T15:48:40;92910.34;;;21.35
40968;BMP280;57377;45.130;6.038;2022-10-16T15:51:07;92915.63;;;21.35
40968;BMP280;57377;45.130;6.038;2022-10-16T15:53:33;92915.84;;;21.30
40968;BMP280;57377;45.130;6.038;2022-10-16T15:56:09;92923.44;;;21.16
40968;BMP280;57377;45.130;6.038;2022-10-16T15:58:35;92924.88;;;21.14
40968;BMP280;57377;45.130;6.038;2022-10-16T16:01:01;92927.94;;;21.00
40968;BMP280;57377;45.130;6.038;2022-10-16T16:03:27;92923.31;;;20.97
40968;BMP280;57377;45.130;6.038;2022-10-16T16:05:53;92932.47;;;21.00
40968;BMP280;57377;45.130;6.038;2022-10-16T16:08:19;92924.19;;;20.74
40968;BMP280;57377;45.130;6.038;2022-10-16T16:10:44;92933.19;;;20.70
40968;BMP280;57377;45.130;6.038;2022-10-16T16:13:10;92941.94;;;20.74
40968;BMP280;57377;45.130;6.038;2022-10-16T16:15:39;92936.91;;;20.69
40968;BMP280;57377;45.130;6.038;2022-10-16T16:18:05;92939.59;;;20.57
40968;BMP280;57377;45.130;6.038;2022-10-16T16:20:31;92940.72;;;20.44
40968;BMP280;57377;45.130;6.038;2022-10-16T16:22:56;92944.94;;;20.33
40968;BMP280;57377;45.130;6.038;2022-10-16T16:25:22;92955.97;;;20.24
40968;BMP280;57377;45.130;6.038;2022-10-16T16:27:47;92953.69;;;20.10
40968;BMP280;57377;45.130;6.038;2022-10-16T16:30:13;92951.16;;;20.14
40968;BMP280;57377;45.130;6.038;2022-10-16T16:32:38;92959.78;;;19.87
40968;BMP280;57377;45.130;6.038;2022-10-16T16:35:04;92963.75;;;19.81
40968;BMP280;57377;45.130;6.038;2022-10-16T16:37:30;92971.44;;;19.86
40968;BMP280;57377;45.130;6.038;2022-10-16T16:39:55;92974.81;;;19.75
40968;BMP280;57377;45.130;6.038;2022-10-16T16:42:26;92973.63;;;19.72
40968;BMP280;57377;45.130;6.038;2022-10-16T16:44:52;92977.19;;;19.76
40968;BMP280;57377;45.130;6.038;2022-10-16T16:47:18;92982.47;;;19.76
40968;BMP280;57377;45.130;6.038;2022-10-16T16:49:43;92988.78;;;19.63
40968;BMP280;57377;45.130;6.038;2022-10-16T16:52:09;93002.44;;;19.65
40968;BMP280;57377;45.130;6.038;2022-10-16T16:54:34;93002.66;;;19.72
40968;BMP280;57377;45.130;6.038;2022-10-16T16:56:59;93006.41;;;19.60
40968;BMP280;57377;45.130;6.038;2022-10-16T16:59:25;93006.84;;;19.50
40968;BMP280;57377;45.130;6.038;2022-10-16T17:01:51;93016.94;;;19.48
40968;BMP280;57377;45.130;6.038;2022-10-16T17:04:16;93021.75;;;19.34
40968;BMP280;57377;45.130;6.038;2022-10-16T17:06:42;93019.63;;;19.27
40968;BMP280;57377;45.130;6.038;2022-10-16T17:09:08;93017.78;;;19.28
40968;BMP280;57377;45.130;6.038;2022-10-16T17:11:34;93018.00;;;19.23
40968;BMP280;57377;45.130;6.038;2022-10-16T17:14:00;93037.34;;;19.27
40968;BMP280;57377;45.130;6.038;2022-10-16T17:16:31;93033.38;;;19.21
40968;BMP280;57377;45.130;6.038;2022-10-16T17:19:02;93040.75;;;18.96
40968;BMP280;57377;45.130;6.038;2022-10-16T17:21:28;93041.00;;;19.02
40968;BMP280;57377;45.130;6.038;2022-10-16T17:23:55;93048.50;;;19.12
40968;BMP280;57377;45.130;6.038;2022-10-16T17:26:20;93056.44;;;19.12
40968;BMP280;57377;45.130;6.038;2022-10-16T17:28:49;93061.13;;;19.07
40968;BMP280;57377;45.130;6.038;2022-10-16T17:31:17;93061.03;;;19.15
40968;BMP280;57377;45.130;6.038;2022-10-16T17:33:44;93064.09;;;18.65
40968;BMP280;57377;45.130;6.038;2022-10-16T17:36:10;93082.28;;;18.78
40968;BMP280;57377;45.130;6.038;2022-10-16T17:38:38;93077.78;;;18.79
40968;BMP280;57377;45.130;6.038;2022-10-16T17:41:21;93086.72;;;18.66
40968;BMP280;57377;45.130;6.038;2022-10-16T17:43:47;93090.84;;;18.75
40968;BMP280;57377;45.130;6.038;2022-10-16T17:46:14;93084.56;;;18.68
40968;BMP280;57377;45.130;6.038;2022-10-16T17:48:42;93095.78;;;18.57
40968;BMP280;57377;45.130;6.038;2022-10-16T17:51:09;93101.56;;;18.50
40968;BMP280;57377;45.130;6.038;2022-10-16T17:53:36;93100.41;;;18.39
40968;BMP280;57377;45.130;6.038;2022-10-16T17:56:06;93111.22;;;18.46
40968;BMP280;57377;45.130;6.038;2022-10-16T17:58:32;93116.78;;;18.65
40968;BMP280;57377;45.130;6.038;2022-10-16T18:00:58;93106.38;;;18.48
40968;BMP280;57377;45.130;6.038;2022-10-16T18:03:24;93110.00;;;18.35
40968;BMP280;57377;45.130;6.038;2022-10-16T18:05:54;93115.94;;;18.53
40968;BMP280;57377;45.130;6.038;2022-10-16T18:08:20;93116.88;;;18.57
40968;BMP280;57377;45.130;6.038;2022-10-16T18:10:47;93123.84;;;18.32
40968;BMP280;57377;45.130;6.038;2022-10-16T18:13:13;93118.84;;;18.39
40968;BMP280;57377;45.130;6.038;2022-10-16T18:15:39;93129.03;;;18.41
40968;BMP280;57377;45.130;6.038;2022-10-16T18:18:04;93126.91;;;18.63
40968;BMP280;57377;45.130;6.038;2022-10-16T18:20:30;93126.66;;;18.56
40968;BMP280;57377;45.130;6.038;2022-10-16T18:22:55;93133.28;;;18.33
40968;BMP280;57377;45.130;6.038;2022-10-16T18:25:21;93129.28;;;18.56
40968;BMP280;57377;45.130;6.038;2022-10-16T18:27:46;93132.19;;;18.63
40968;BMP280;57377;45.130;6.038;2022-10-16T18:30:11;93132.00;;;18.39
40968;BMP280;57377;45.130;6.038;2022-10-16T18:32:37;93139.00;;;18.35
40968;BMP280;57377;45.130;6.038;2022-10-16T18:35:03;93158.09;;;18.32
40968;BMP280;57377;45.130;6.038;2022-10-16T18:37:28;93156.88;;;18.22
40968;BMP280;57377;45.130;6.038;2022-10-16T18:39:54;93158.72;;;18.30
40968;BMP280;57377;45.130;6.038;2022-10-16T18:42:19;93166.44;;;18.34
40968;BMP280;57377;45.130;6.038;2022-10-16T18:44:44;93161.13;;;18.43
40968;BMP280;57377;45.130;6.038;2022-10-16T18:47:10;93169.97;;;18.38
40968;BMP280;57377;45.130;6.038;2022-10-16T18:49:36;93177.47;;;18.28
40968;BMP280;57377;45.130;6.038;2022-10-16T18:52:02;93172.31;;;18.31
40968;BMP280;57377;45.130;6.038;2022-10-16T18:54:28;93174.47;;;17.93
40968;BMP280;57377;45.130;6.038;2022-10-16T18:56:54;93175.53;;;18.00
40968;BMP280;57377;45.130;6.038;2022-10-16T18:59:20;93177.41;;;18.08
40968;BMP280;57377;45.130;6.038;2022-10-16T19:01:45;93186.69;;;17.97
40968;BMP280;57377;45.130;6.038;2022-10-16T19:04:15;93193.34;;;18.11
40968;BMP280;57377;45.130;6.038;2022-10-16T19:06:45;93205.56;;;18.16
40968;BMP280;57377;45.130;6.038;2022-10-16T19:09:13;93201.78;;;17.71
40968;BMP280;57377;45.130;6.038;2022-10-16T19:11:39;93190.31;;;17.84
40968;BMP280;57377;45.130;6.038;2022-10-16T19:14:04;93201.28;;;17.86
40968;BMP280;57377;45.130;6.038;2022-10-16T19:16:32;93205.28;;;17.92
40968;BMP280;57377;45.130;6.038;2022-10-16T19:19:00;93195.88;;;17.91
40968;BMP280;57377;45.130;6.038;2022-10-16T19:21:27;93195.09;;;17.74
40968;BMP280;57377;45.130;6.038;2022-10-16T19:23:58;93195.22;;;17.86
40968;BMP280;57377;45.130;6.038;2022-10-16T19:26:25;93195.56;;;17.84
40968;BMP280;57377;45.130;6.038;2022-10-16T19:28:51;93203.31;;;17.81
40968;BMP280;57377;45.130;6.038;2022-10-16T19:31:20;93201.94;;;17.75
40968;BMP280;57377;45.130;6.038;2022-10-16T19:33:46;93209.97;;;17.87
40968;BMP280;57377;45.130;6.038;2022-10-16T19:36:16;93212.03;;;17.65
40968;BMP280;57377;45.130;6.038;2022-10-16T19:38:42;93206.75;;;17.06
40968;BMP280;57377;45.130;6.038;2022-10-16T19:43:35;93205.50;;;17.70
40968;BMP280;57377;45.130;6.038;2022-10-16T19:46:04;93208.59;;;17.72
40968;BMP280;57377;45.130;6.038;2022-10-16T19:48:30;93202.22;;;17.73
40968;BMP280;57377;45.130;6.038;2022-10-16T19:50:55;93214.50;;;17.53
40968;BMP280;57377;45.130;6.038;2022-10-16T19:53:21;93211.75;;;17.24
40968;BMP280;57377;45.130;6.038;2022-10-16T19:55:46;93214.34;;;17.33
40968;BMP280;57377;45.130;6.038;2022-10-16T19:58:11;93217.41;;;17.60
40968;BMP280;57377;45.130;6.038;2022-10-16T20:00:40;93220.69;;;17.57
40968;BMP280;57377;45.130;6.038;2022-10-16T20:03:06;93216.63;;;17.76
40968;BMP280;57377;45.130;6.038;2022-10-16T20:05:31;93220.03;;;17.76
40968;BMP280;57377;45.130;6.038;2022-10-16T20:07:57;93224.34;;;17.81
40968;BMP280;57377;45.130;6.038;2022-10-16T20:10:22;93233.38;;;17.63
40968;BMP280;57377;45.130;6.038;2022-10-16T20:12:50;93230.59;;;17.34
40968;BMP280;57377;45.130;6.038;2022-10-16T20:15:15;93230.25;;;17.02
40968;BMP280;57377;45.130;6.038;2022-10-16T20:17:41;93241.72;;;17.23
40968;BMP280;57377;45.130;6.038;2022-10-16T20:20:06;93239.56;;;17.25
40968;BMP280;57377;45.130;6.038;2022-10-16T20:22:32;93246.06;;;17.44
40968;BMP280;57377;45.130;6.038;2022-10-16T20:24:57;93254.25;;;17.60
40968;BMP280;57377;45.130;6.038;2022-10-16T20:27:22;93253.66;;;17.63
40968;BMP280;57377;45.130;6.038;2022-10-16T20:29:49;93258.94;;;17.63
40968;BMP280;57377;45.130;6.038;2022-10-16T20:32:14;93252.59;;;17.55
40968;BMP280;57377;45.130;6.038;2022-10-16T20:34:40;93255.81;;;17.52
40968;BMP280;57377;45.130;6.038;2022-10-16T20:37:06;93260.31;;;17.52
40968;BMP280;57377;45.130;6.038;2022-10-16T20:39:32;93262.03;;;17.48
40968;BMP280;57377;45.130;6.038;2022-10-16T20:41:57;93270.06;;;17.26
40968;BMP280;57377;45.130;6.038;2022-10-16T20:44:22;93264.44;;;17.02
40968;BMP280;57377;45.130;6.038;2022-10-16T20:46:48;93271.44;;;17.32
40968;BMP280;57377;45.130;6.038;2022-10-16T20:49:13;93278.72;;;17.35
40968;BMP280;57377;45.130;6.038;2022-10-16T20:51:38;93285.34;;;17.16
40968;BMP280;57377;45.130;6.038;2022-10-16T20:54:05;93282.69;;;17.07
40968;BMP280;57377;45.130;6.038;2022-10-16T20:56:32;93287.34;;;17.19
40968;BMP280;57377;45.130;6.038;2022-10-16T20:58:58;93284.59;;;17.15
40968;BMP280;57377;45.130;6.038;2022-10-16T21:01:25;93292.78;;;17.31
40968;BMP280;57377;45.130;6.038;2022-10-16T21:03:52;93292.34;;;17.37
40968;BMP280;57377;45.130;6.038;2022-10-16T21:06:18;93293.41;;;17.28
40968;BMP280;57377;45.130;6.038;2022-10-16T21:08:44;93291.72;;;17.40
40968;BMP280;57377;45.130;6.038;2022-10-16T21:11:21;93288.94;;;17.45
40968;BMP280;57377;45.130;6.038;2022-10-16T21:13:47;93299.13;;;17.38
40968;BMP280;57377;45.130;6.038;2022-10-16T21:16:13;93292.34;;;17.37
40968;BMP280;57377;45.130;6.038;2022-10-16T21:18:39;93302.88;;;17.37
40968;BMP280;57377;45.130;6.038;2022-10-16T21:21:05;93306.09;;;17.17
40968;BMP280;57377;45.130;6.038;2022-10-16T21:23:31;93297.72;;;17.15
40968;BMP280;57377;45.130;6.038;2022-10-16T21:25:58;93302.69;;;17.25
40968;BMP280;57377;45.130;6.038;2022-10-16T21:28:25;93288.94;;;17.20
40968;BMP280;57377;45.130;6.038;2022-10-16T21:30:51;93292.63;;;17.19
40968;BMP280;57377;45.130;6.038;2022-10-16T21:33:16;93303.94;;;17.19
40968;BMP280;57377;45.130;6.038;2022-10-16T21:35:41;93300.69;;;17.22
40968;BMP280;57377;45.130;6.038;2022-10-16T21:38:07;93300.84;;;17.26
40968;BMP280;57377;45.130;6.038;2022-10-16T21:40:32;93304.09;;;17.31
40968;BMP280;57377;45.130;6.038;2022-10-16T21:42:58;93302.91;;;16.99
40968;BMP280;57377;45.130;6.038;2022-10-16T21:45:24;93310.00;;;16.81
40968;BMP280;57377;45.130;6.038;2022-10-16T21:47:49;93304.06;;;16.68
40968;BMP280;57377;45.130;6.038;2022-10-16T21:50:14;93317.19;;;16.59
40968;BMP280;57377;45.130;6.038;2022-10-16T21:52:40;93313.25;;;16.87
40968;BMP280;57377;45.130;6.038;2022-10-16T21:55:06;93315.06;;;16.78
40968;BMP280;57377;45.130;6.038;2022-10-16T21:57:32;93315.34;;;16.68
40968;BMP280;57377;45.130;6.038;2022-10-16T21:59:58;93315.88;;;16.48
40968;BMP280;57377;45.130;6.038;2022-10-16T22:02:23;93320.59;;;16.68
40968;BMP280;57377;45.130;6.038;2022-10-16T22:04:48;93326.97;;;16.75
40968;BMP280;57377;45.130;6.038;2022-10-16T22:07:14;93326.25;;;16.92
40968;BMP280;57377;45.130;6.038;2022-10-16T22:09:39;93336.75;;;16.92
40968;BMP280;57377;45.130;6.038;2022-10-16T22:12:04;93332.56;;;16.82
40968;BMP280;57377;45.130;6.038;2022-10-16T22:14:30;93337.47;;;16.75
40968;BMP280;57377;45.130;6.038;2022-10-16T22:16:55;93344.09;;;16.73
40968;BMP280;57377;45.130;6.038;2022-10-16T22:19:21;93333.38;;;16.61
40968;BMP280;57377;45.130;6.038;2022-10-16T22:21:47;93334.25;;;16.78
40968;BMP280;57377;45.130;6.038;2022-10-16T22:24:16;93333.22;;;16.49
40968;BMP280;57377;45.130;6.038;2022-10-16T22:26:42;93325.97;;;16.55
40968;BMP280;57377;45.130;6.038;2022-10-16T22:29:10;93331.81;;;16.22
40968;BMP280;57377;45.130;6.038;2022-10-16T22:31:35;93323.06;;;16.35
40968;BMP280;57377;45.130;6.038;2022-10-16T22:34:02;93335.63;;;16.38
40968;BMP280;57377;45.130;6.038;2022-10-16T22:36:28;93331.47;;;16.15
40968;BMP280;57377;45.130;6.038;2022-10-16T22:38:54;93324.75;;;16.31
40968;BMP280;57377;45.130;6.038;2022-10-16T22:41:20;93322.50;;;16.46
40968;BMP280;57377;45.130;6.038;2022-10-16T22:43:47;93318.69;;;16.52
40968;BMP280;57377;45.130;6.038;2022-10-16T22:46:18;93324.78;;;16.39
40968;BMP280;57377;45.130;6.038;2022-10-16T22:48:44;93319.53;;;16.39
40968;BMP280;57377;45.130;6.038;2022-10-16T22:51:10;93320.06;;;16.49
40968;BMP280;57377;45.130;6.038;2022-10-16T22:53:38;93326.13;;;16.58
40968;BMP280;57377;45.130;6.038;2022-10-16T22:56:04;93338.06;;;16.64
40968;BMP280;57377;45.130;6.038;2022-10-16T22:58:29;93332.25;;;16.45
40968;BMP280;57377;45.130;6.038;2022-10-16T23:00:55;93334.31;;;16.27
40968;BMP280;57377;45.130;6.038;2022-10-16T23:03:20;93339.56;;;16.27
40968;BMP280;57377;45.130;6.038;2022-10-16T23:05:45;93332.25;;;16.45
40968;BMP280;57377;45.130;6.038;2022-10-16T23:08:11;93328.19;;;16.39
40968;BMP280;57377;45.130;6.038;2022-10-16T23:10:38;93334.06;;;16.37
40968;BMP280;57377;45.130;6.038;2022-10-16T23:13:03;93337.63;;;16.40
40968;BMP280;57377;45.130;6.038;2022-10-16T23:15:29;93334.84;;;16.15
40968;BMP280;57377;45.130;6.038;2022-10-16T23:17:54;93329.66;;;16.24
40968;BMP280;57377;45.130;6.038;2022-10-16T23:20:20;93333.59;;;15.91
40968;BMP280;57377;45.130;6.038;2022-10-16T23:22:45;93326.59;;;16.08
40968;BMP280;57377;45.130;6.038;2022-10-16T23:25:11;93338.84;;;15.91
40968;BMP280;57377;45.130;6.038;2022-10-16T23:27:36;93329.19;;;16.22
40968;BMP280;57377;45.130;6.038;2022-10-16T23:30:02;93336.03;;;16.31
40968;BMP280;57377;45.130;6.038;2022-10-16T23:32:27;93345.28;;;16.29
40968;BMP280;57377;45.130;6.038;2022-10-16T23:34:53;93339.44;;;16.32
40968;BMP280;57377;45.130;6.038;2022-10-16T23:37:18;93345.66;;;16.14
40968;BMP280;57377;45.130;6.038;2022-10-16T23:39:43;93350.81;;;16.19
40968;BMP280;57377;45.130;6.038;2022-10-16T23:42:08;93352.69;;;16.05
40968;BMP280;57377;45.130;6.038;2022-10-16T23:44:34;93350.44;;;15.55
40968;BMP280;57377;45.130;6.038;2022-10-16T23:46:59;93359.13;;;15.77
40968;BMP280;57377;45.130;6.038;2022-10-16T23:49:24;93356.56;;;15.51
40968;BMP280;57377;45.130;6.038;2022-10-16T23:51:50;93352.78;;;15.78
40968;BMP280;57377;45.130;6.038;2022-10-16T23:54:15;93344.66;;;15.67
40968;BMP280;57377;45.130;6.038;2022-10-16T23:56:41;93356.84;;;15.84
40968;BMP280;57377;45.130;6.038;2022-10-16T23:59:06;93356.63;;;15.94
